createdAt,value
2022-10-14T00:01:15.866Z,18.67
2022-10-14T00:03:59.301Z,17.33
2022-10-14T00:06:31.643Z,16.52
2022-10-14T00:09:05.046Z,16.42
2022-10-14T00:11:34.858Z,17.10
2022-10-14T00:14:12.684Z,16.80
2022-10-14T00:16:43.336Z,18.90
2022-10-14T00:19:12.718Z,15.43
2022-10-14T00:21:41.985Z,15.77
2022-10-14T00:24:12.969Z,16.23
2022-10-14T00:26:40.994Z,15.75
2022-10-14T00:29:12.040Z,17.20
2022-10-14T00:31:40.472Z,15.90
2022-10-14T00:34:07.770Z,15.65
2022-10-14T00:36:35.097Z,15.52
2022-10-14T00:39:02.385Z,17.17
2022-10-14T00:41:34.072Z,16.35
2022-10-14T00:44:15.543Z,16.33
2022-10-14T00:46:48.536Z,15.75
2022-10-14T00:49:31.994Z,17.30
2022-10-14T00:52:08.476Z,14.50
2022-10-14T00:54:40.386Z,15.32
2022-10-14T00:57:09.159Z,16.42
2022-10-14T00:59:36.534Z,15.63
2022-10-14T01:02:04.586Z,15.55
2022-10-14T01:04:32.059Z,15.45
2022-10-14T01:07:12.329Z,16.45
2022-10-14T01:10:23.342Z,15.68
2022-10-14T01:13:01.641Z,14.80
2022-10-14T01:15:50.854Z,14.43
2022-10-14T01:18:28.033Z,15.25
2022-10-14T01:21:11.868Z,16.92
2022-10-14T01:24:05.508Z,16.58
2022-10-14T01:27:03.938Z,16.15
2022-10-14T01:29:49.848Z,15.68
2022-10-14T01:32:24.150Z,15.55
2022-10-14T01:34:58.457Z,15.63
2022-10-14T01:37:30.682Z,15.52
2022-10-14T01:40:05.410Z,16.00
2022-10-14T01:42:37.330Z,15.68
2022-10-14T01:47:39.941Z,15.20
2022-10-14T01:50:15.262Z,14.25
2022-10-14T01:52:52.476Z,16.50
2022-10-14T01:55:25.303Z,15.80
2022-10-14T01:57:56.040Z,16.20
2022-10-14T02:02:51.833Z,15.05
2022-10-14T02:05:37.130Z,15.85
2022-10-14T02:08:42.740Z,15.98
2022-10-14T02:11:17.822Z,16.27
2022-10-14T02:14:04.010Z,15.65
2022-10-14T02:16:38.620Z,16.35
2022-10-14T02:19:27.282Z,16.23
2022-10-14T02:22:04.824Z,16.40
2022-10-14T02:24:39.569Z,14.98
2022-10-14T02:27:14.801Z,16.85
2022-10-14T02:29:45.644Z,16.67
2022-10-14T02:32:16.816Z,16.60
2022-10-14T02:34:49.582Z,16.13
2022-10-14T02:37:18.248Z,16.40
2022-10-14T02:39:52.100Z,15.73
2022-10-14T02:42:19.455Z,16.25
2022-10-14T02:44:58.700Z,15.60
2022-10-14T02:47:25.952Z,15.43
2022-10-14T02:49:53.910Z,16.70
2022-10-14T02:52:21.364Z,15.98
2022-10-14T02:54:48.632Z,16.13
2022-10-14T02:57:16.717Z,15.50
2022-10-14T02:59:43.627Z,17.77
2022-10-14T03:02:11.011Z,17.55
2022-10-14T03:04:40.968Z,16.70
2022-10-14T03:07:09.538Z,16.02
2022-10-14T03:09:42.457Z,16.92
2022-10-14T03:12:10.657Z,17.15
2022-10-14T03:14:38.585Z,18.13
2022-10-14T03:17:07.766Z,17.70
2022-10-14T03:19:34.960Z,16.98
2022-10-14T03:22:02.122Z,17.42
2022-10-14T03:24:30.151Z,18.33
2022-10-14T03:27:17.718Z,17.48
2022-10-14T03:29:48.324Z,17.55
2022-10-14T03:32:20.764Z,17.35
2022-10-14T03:35:24.603Z,17.67
2022-10-14T03:37:55.253Z,18.90
2022-10-14T03:40:28.658Z,17.58
2022-10-14T03:43:01.205Z,17.25
2022-10-14T03:45:34.411Z,18.50
2022-10-14T03:48:02.989Z,17.42
2022-10-14T03:50:31.223Z,16.90
2022-10-14T03:52:59.059Z,17.95
2022-10-14T03:55:33.207Z,19.45
2022-10-14T03:58:00.766Z,17.70
2022-10-14T04:00:28.532Z,17.63
2022-10-14T04:03:10.553Z,18.10
2022-10-14T04:05:40.287Z,17.92
2022-10-14T04:08:15.112Z,16.20
2022-10-14T04:10:55.211Z,16.73
2022-10-14T04:13:23.603Z,17.38
2022-10-14T04:15:51.526Z,18.70
2022-10-14T04:18:25.669Z,18.25
2022-10-14T04:21:00.683Z,17.50
2022-10-14T04:23:28.807Z,18.40
2022-10-14T04:26:09.636Z,17.92
2022-10-14T04:28:38.776Z,17.92
2022-10-14T04:31:13.269Z,18.77
2022-10-14T04:33:55.073Z,17.75
2022-10-14T04:36:29.719Z,18.23
2022-10-14T04:38:59.450Z,17.90
2022-10-14T04:41:26.648Z,19.35
2022-10-14T04:43:56.227Z,19.38
2022-10-14T04:46:38.895Z,18.70
2022-10-14T04:49:06.687Z,18.42
2022-10-14T04:51:39.427Z,18.83
2022-10-14T04:54:29.642Z,18.10
2022-10-14T04:57:00.250Z,18.58
2022-10-14T04:59:31.161Z,18.33
2022-10-14T05:02:16.600Z,18.42
2022-10-14T05:04:56.813Z,19.45
2022-10-14T05:07:25.824Z,20.42
2022-10-14T05:09:59.737Z,18.70
2022-10-14T05:12:38.678Z,20.15
2022-10-14T05:15:07.355Z,19.15
2022-10-14T05:17:44.551Z,20.00
2022-10-14T05:20:14.161Z,19.58
2022-10-14T05:22:45.745Z,18.33
2022-10-14T05:25:13.133Z,19.95
2022-10-14T05:27:40.605Z,18.60
2022-10-14T05:30:08.373Z,17.92
2022-10-14T05:32:41.115Z,21.08
2022-10-14T05:35:08.990Z,18.60
2022-10-14T05:37:39.743Z,19.43
2022-10-14T05:40:08.359Z,19.17
2022-10-14T05:42:36.966Z,18.63
2022-10-14T05:45:05.418Z,19.58
2022-10-14T05:47:35.813Z,19.52
2022-10-14T05:50:12.754Z,18.77
2022-10-14T05:52:42.717Z,18.52
2022-10-14T05:55:16.776Z,18.38
2022-10-14T05:57:45.706Z,18.45
2022-10-14T06:00:24.697Z,18.95
2022-10-14T06:02:58.892Z,19.02
2022-10-14T06:05:27.202Z,21.00
2022-10-14T06:07:54.112Z,19.38
2022-10-14T06:10:21.719Z,19.67
2022-10-14T06:12:48.605Z,18.65
2022-10-14T06:15:15.842Z,19.75
2022-10-14T06:17:43.051Z,19.83
2022-10-14T06:20:10.612Z,20.05
2022-10-14T06:22:37.593Z,19.05
2022-10-14T06:25:05.337Z,19.13
2022-10-14T06:27:32.437Z,19.92
2022-10-14T06:29:59.409Z,21.38
2022-10-14T06:32:26.558Z,20.67
2022-10-14T06:34:53.652Z,18.95
2022-10-14T06:37:20.835Z,20.10
2022-10-14T06:39:48.296Z,20.58
2022-10-14T06:42:15.220Z,19.83
2022-10-14T06:44:42.554Z,20.20
2022-10-14T06:47:10.080Z,18.98
2022-10-14T06:49:37.200Z,20.38
2022-10-14T06:52:04.704Z,19.75
2022-10-14T06:54:35.527Z,19.67
2022-10-14T06:57:05.325Z,19.33
2022-10-14T06:59:32.243Z,20.25
2022-10-14T07:02:00.166Z,19.65
2022-10-14T07:04:27.353Z,21.17
2022-10-14T07:06:57.503Z,20.65
2022-10-14T07:09:25.333Z,21.08
2022-10-14T07:11:52.276Z,22.00
2022-10-14T07:14:19.282Z,19.73
2022-10-14T07:16:46.614Z,19.80
2022-10-14T07:19:13.653Z,20.65
2022-10-14T07:21:41.922Z,19.50
2022-10-14T07:24:09.570Z,19.70
2022-10-14T07:26:36.651Z,20.08
2022-10-14T07:29:05.280Z,20.52
2022-10-14T07:31:33.037Z,20.50
2022-10-14T07:34:01.689Z,20.60
2022-10-14T07:36:29.077Z,20.13
2022-10-14T07:38:56.478Z,19.65
2022-10-14T07:41:25.164Z,19.98
2022-10-14T07:43:54.818Z,21.27
2022-10-14T07:46:29.657Z,20.33
2022-10-14T07:48:57.978Z,21.33
2022-10-14T07:51:27.951Z,18.75
2022-10-14T07:53:57.390Z,19.70
2022-10-14T07:56:25.391Z,19.48
2022-10-14T07:58:52.812Z,19.65
2022-10-14T08:01:20.605Z,19.70
2022-10-14T08:03:48.521Z,20.83
2022-10-14T08:06:16.442Z,19.90
2022-10-14T08:08:44.201Z,20.42
2022-10-14T08:11:17.561Z,20.55
2022-10-14T08:13:46.553Z,20.50
2022-10-14T08:16:21.352Z,19.83
2022-10-14T08:18:48.580Z,20.50
2022-10-14T08:21:17.129Z,20.70
2022-10-14T08:23:44.633Z,20.15
2022-10-14T08:26:39.075Z,19.88
2022-10-14T08:29:10.705Z,20.38
2022-10-14T08:34:05.154Z,21.25
2022-10-14T08:36:33.507Z,19.88
2022-10-14T08:39:00.539Z,20.88
2022-10-14T08:41:56.474Z,20.20
2022-10-14T08:44:28.885Z,19.30
2022-10-14T08:46:59.163Z,19.55
2022-10-14T08:49:37.642Z,19.58
2022-10-14T08:52:12.878Z,19.05
2022-10-14T08:54:44.686Z,20.60
2022-10-14T08:57:20.257Z,19.13
2022-10-14T08:59:48.272Z,20.38
2022-10-14T09:02:34.692Z,19.27
2022-10-14T09:05:02.551Z,19.77
2022-10-14T09:07:31.794Z,18.60
2022-10-14T09:10:03.743Z,18.52
2022-10-14T09:12:35.246Z,19.08
2022-10-14T09:15:09.135Z,18.80
2022-10-14T09:17:43.113Z,17.77
2022-10-14T09:20:25.151Z,17.58
2022-10-14T09:23:17.157Z,17.30
2022-10-14T09:28:19.616Z,16.77
2022-10-14T09:30:46.569Z,17.40
2022-10-14T09:33:20.732Z,17.33
2022-10-14T09:35:49.277Z,15.60
2022-10-14T09:38:17.520Z,16.17
2022-10-14T09:40:47.407Z,16.38
2022-10-14T09:43:18.149Z,15.73
2022-10-14T09:45:57.439Z,16.55
2022-10-14T09:48:27.142Z,16.20
2022-10-14T09:50:56.747Z,15.50
2022-10-14T09:53:32.658Z,15.77
2022-10-14T09:56:06.324Z,15.68
2022-10-14T09:58:42.663Z,14.27
2022-10-14T10:01:22.032Z,15.40
2022-10-14T10:03:52.265Z,16.80
2022-10-14T10:06:52.081Z,16.15
2022-10-14T10:09:20.354Z,15.43
2022-10-14T10:11:48.146Z,14.93
2022-10-14T10:14:25.785Z,16.10
2022-10-14T10:17:14.033Z,16.45
2022-10-14T10:19:51.574Z,15.10
2022-10-14T10:22:23.045Z,16.52
2022-10-14T10:25:01.263Z,14.60
2022-10-14T10:27:35.642Z,15.23
2022-10-14T10:30:18.247Z,15.13
2022-10-14T10:32:47.870Z,15.05
2022-10-14T10:35:30.443Z,14.65
2022-10-14T10:38:30.987Z,14.68
2022-10-14T10:41:02.940Z,14.85
2022-10-14T10:44:00.594Z,14.63
2022-10-14T10:46:45.825Z,14.50
2022-10-14T10:49:26.156Z,14.07
2022-10-14T10:52:17.404Z,14.77
2022-10-14T10:54:56.497Z,15.98
2022-10-14T10:57:42.012Z,14.55
2022-10-14T11:00:14.031Z,14.82
2022-10-14T11:02:44.286Z,14.38
2022-10-14T11:05:24.119Z,14.85
2022-10-14T11:11:19.210Z,14.05
2022-10-14T11:13:56.331Z,13.98
2022-10-14T11:16:38.903Z,14.50
2022-10-14T11:19:35.688Z,15.48
2022-10-14T11:22:05.715Z,14.88
2022-10-14T11:24:54.779Z,14.32
2022-10-14T11:27:45.528Z,15.73
2022-10-14T11:30:19.667Z,16.40
2022-10-14T11:33:09.900Z,15.27
2022-10-14T11:36:11.154Z,15.23
2022-10-14T11:38:57.314Z,14.90
2022-10-14T11:41:33.497Z,14.93
2022-10-14T11:44:11.118Z,15.68
2022-10-14T11:46:42.844Z,15.90
2022-10-14T11:49:27.137Z,16.80
2022-10-14T11:52:06.466Z,16.23
2022-10-14T11:54:40.600Z,15.73
2022-10-14T11:57:21.214Z,16.00
2022-10-14T11:59:56.341Z,15.43
2022-10-14T12:02:59.483Z,15.20
2022-10-14T12:05:38.903Z,16.05
2022-10-14T12:08:30.466Z,14.95
2022-10-14T12:11:16.237Z,15.45
2022-10-14T12:13:47.959Z,15.68
2022-10-14T12:16:18.006Z,16.70
2022-10-14T12:18:49.498Z,15.98
2022-10-14T12:21:31.641Z,16.13
2022-10-14T12:24:05.928Z,16.38
2022-10-14T12:26:49.746Z,16.30
2022-10-14T12:29:21.684Z,15.55
2022-10-14T12:32:04.055Z,16.15
2022-10-14T12:34:40.134Z,16.27
2022-10-14T12:37:35.515Z,17.13
2022-10-14T12:40:03.234Z,16.67
2022-10-14T12:42:32.137Z,17.45
2022-10-14T12:45:14.678Z,17.45
2022-10-14T12:47:44.077Z,18.23
2022-10-14T12:50:14.797Z,17.65
2022-10-14T12:52:47.166Z,17.52
2022-10-14T12:55:19.244Z,17.23
2022-10-14T12:57:55.353Z,16.50
2022-10-14T13:00:22.305Z,16.63
2022-10-14T13:02:52.060Z,16.70
2022-10-14T13:05:37.342Z,16.05
2022-10-14T13:08:11.551Z,16.63
2022-10-14T13:10:43.158Z,16.33
2022-10-14T13:13:53.480Z,16.70
2022-10-14T13:16:23.512Z,16.30
2022-10-14T13:19:04.367Z,15.38
2022-10-14T13:21:37.067Z,16.92
2022-10-14T13:24:22.300Z,17.08
2022-10-14T13:26:54.975Z,17.35
2022-10-14T13:29:53.539Z,16.52
2022-10-14T13:32:49.815Z,17.15
2022-10-14T13:35:32.213Z,17.08
2022-10-14T13:38:11.897Z,17.90
2022-10-14T13:40:49.551Z,18.42
2022-10-14T13:43:40.616Z,20.33
2022-10-14T13:46:22.036Z,19.23
2022-10-14T13:48:52.009Z,18.02
2022-10-14T13:51:42.908Z,18.33
2022-10-14T13:54:19.827Z,18.30
2022-10-14T14:02:55.864Z,17.23
2022-10-14T14:08:36.572Z,17.08
2022-10-14T14:11:18.057Z,20.67
2022-10-14T14:14:00.872Z,16.10
2022-10-14T14:16:40.161Z,16.40
2022-10-14T14:19:38.005Z,20.30
2022-10-14T14:22:08.793Z,16.35
2022-10-14T14:24:36.005Z,16.95
2022-10-14T14:27:03.405Z,17.83
2022-10-14T14:29:33.394Z,16.80
2022-10-14T14:32:08.256Z,16.10
2022-10-14T14:34:38.864Z,14.98
2022-10-14T14:40:14.965Z,15.93
2022-10-14T14:42:43.812Z,16.65
2022-10-14T14:45:19.672Z,17.00
2022-10-14T14:47:56.566Z,16.73
2022-10-14T14:50:32.864Z,16.55
2022-10-14T14:53:10.361Z,17.15
2022-10-14T14:55:42.133Z,16.15
2022-10-14T14:58:49.219Z,15.95
2022-10-14T15:01:29.182Z,16.67
2022-10-14T15:04:13.309Z,18.08
2022-10-14T15:07:03.269Z,15.70
2022-10-14T15:09:43.445Z,16.23
2022-10-14T15:12:17.795Z,17.58
2022-10-14T15:14:50.514Z,15.40
2022-10-14T15:17:29.733Z,17.25
2022-10-14T15:20:01.368Z,17.43
2022-10-14T15:22:38.745Z,16.58
2022-10-14T15:25:13.059Z,16.23
2022-10-14T15:27:47.492Z,15.73
2022-10-14T15:30:34.995Z,16.60
2022-10-14T15:33:13.891Z,15.90
2022-10-14T15:35:41.798Z,16.95
2022-10-14T15:38:18.330Z,16.95
2022-10-14T15:40:49.081Z,17.70
2022-10-14T15:43:26.039Z,17.08
2022-10-14T15:46:18.159Z,18.13
2022-10-14T15:48:50.976Z,17.63
2022-10-14T15:51:23.531Z,16.27
2022-10-14T15:53:50.556Z,18.50
2022-10-14T15:56:17.617Z,16.95
2022-10-14T15:58:45.612Z,19.05
2022-10-14T16:01:20.616Z,17.10
2022-10-14T16:03:48.956Z,19.45
2022-10-14T16:06:17.113Z,16.92
2022-10-14T16:08:46.588Z,17.48
2022-10-14T16:11:23.141Z,19.10
2022-10-14T16:13:50.225Z,18.70
2022-10-14T16:16:24.150Z,18.42
2022-10-14T16:18:51.769Z,18.88
2022-10-14T16:21:19.018Z,19.02
2022-10-14T16:23:45.884Z,19.67
2022-10-14T16:26:13.921Z,19.48
2022-10-14T16:28:41.396Z,20.08
2022-10-14T16:31:12.601Z,20.52
2022-10-14T16:33:43.179Z,20.17
2022-10-14T16:36:14.961Z,20.52
2022-10-14T16:38:42.612Z,23.08
2022-10-14T16:41:10.660Z,21.33
2022-10-14T16:43:38.139Z,22.48
2022-10-14T16:46:06.832Z,23.15
2022-10-14T16:48:35.779Z,23.38
2022-10-14T16:51:03.437Z,22.42
2022-10-14T16:53:40.819Z,22.02
2022-10-14T16:56:31.583Z,24.08
2022-10-14T16:58:59.714Z,22.65
2022-10-14T17:01:27.470Z,22.33
2022-10-14T17:03:55.905Z,24.85
2022-10-14T17:06:24.303Z,24.60
2022-10-14T17:08:51.676Z,24.95
2022-10-14T17:11:19.197Z,22.45
2022-10-14T17:13:46.220Z,25.85
2022-10-14T17:16:13.350Z,24.45
2022-10-14T17:18:43.302Z,24.40
2022-10-14T17:21:13.716Z,25.58
2022-10-14T17:23:42.808Z,25.30
2022-10-14T17:26:14.655Z,25.75
2022-10-14T17:28:42.537Z,25.30
2022-10-14T17:31:14.298Z,25.42
2022-10-14T17:33:41.312Z,24.42
2022-10-14T17:36:21.402Z,25.35
2022-10-14T17:38:50.776Z,26.58
2022-10-14T17:41:18.824Z,24.60
2022-10-14T17:43:49.494Z,26.65
2022-10-14T17:46:21.137Z,26.23
2022-10-14T17:48:51.182Z,25.55
2022-10-14T17:51:20.306Z,25.20
2022-10-14T17:53:48.304Z,24.27
2022-10-14T17:56:15.508Z,24.80
2022-10-14T17:58:42.922Z,25.33
2022-10-14T18:01:14.959Z,25.77
2022-10-14T18:03:44.164Z,26.52
2022-10-14T18:06:15.871Z,25.63
2022-10-14T18:08:44.982Z,27.25
2022-10-14T18:11:13.188Z,27.13
2022-10-14T18:13:41.465Z,27.42
2022-10-14T18:16:13.457Z,27.00
2022-10-14T18:18:41.846Z,26.60
2022-10-14T18:21:10.208Z,27.60
2022-10-14T18:23:39.977Z,26.25
2022-10-14T18:26:13.618Z,26.80
2022-10-14T18:28:43.608Z,26.27
2022-10-14T18:31:17.564Z,26.92
2022-10-14T18:33:46.157Z,26.67
2022-10-14T18:36:19.062Z,27.35
2022-10-14T18:38:51.158Z,27.50
2022-10-14T18:41:19.049Z,27.80
2022-10-14T18:43:47.063Z,27.33
2022-10-14T18:46:19.757Z,28.05
2022-10-14T18:48:50.921Z,29.33
2022-10-14T18:51:21.582Z,28.07
2022-10-14T18:53:48.641Z,28.58
2022-10-14T18:56:18.757Z,27.08
2022-10-14T18:58:47.556Z,28.75
2022-10-14T19:01:16.012Z,28.42
2022-10-14T19:03:44.172Z,29.65
2022-10-14T19:06:13.432Z,30.35
2022-10-14T19:08:42.330Z,28.27
2022-10-14T19:11:16.439Z,29.60
2022-10-14T19:13:45.386Z,29.52
2022-10-14T19:16:19.456Z,29.17
2022-10-14T19:18:47.408Z,28.58
2022-10-14T19:21:16.098Z,28.95
2022-10-14T19:23:43.821Z,28.77
2022-10-14T19:26:14.793Z,29.67
2022-10-14T19:28:42.487Z,28.77
2022-10-14T19:31:15.210Z,29.63
2022-10-14T19:33:44.753Z,29.40
2022-10-14T19:36:15.154Z,29.10
2022-10-14T19:38:52.312Z,28.67
2022-10-14T19:41:19.568Z,30.50
2022-10-14T19:43:46.486Z,30.23
2022-10-14T19:46:14.247Z,29.58
2022-10-14T19:48:41.465Z,29.90
2022-10-14T19:51:11.825Z,27.98
2022-10-14T19:53:38.982Z,28.90
2022-10-14T19:56:11.456Z,29.85
2022-10-14T19:58:43.795Z,31.58
2022-10-14T20:01:17.448Z,30.42
2022-10-14T20:03:44.633Z,29.60
2022-10-14T20:06:13.399Z,30.42
2022-10-14T20:08:41.197Z,29.77
2022-10-14T20:11:11.813Z,29.75
2022-10-14T20:13:40.119Z,28.75
2022-10-14T20:16:09.570Z,29.65
2022-10-14T20:18:37.108Z,30.92
2022-10-14T20:21:08.188Z,30.85
2022-10-14T20:23:38.165Z,29.67
2022-10-14T20:26:12.690Z,30.95
2022-10-14T20:28:40.072Z,30.08
2022-10-14T20:31:12.966Z,30.33
2022-10-14T20:33:40.489Z,30.15
2022-10-14T20:36:11.881Z,30.63
2022-10-14T20:38:40.249Z,31.00
2022-10-14T20:41:11.699Z,30.33
2022-10-14T20:43:39.935Z,32.30
2022-10-14T20:46:07.126Z,30.25
2022-10-14T20:48:34.430Z,30.85
2022-10-14T20:51:08.828Z,30.48
2022-10-14T20:53:36.036Z,32.47
2022-10-14T20:56:04.993Z,31.13
2022-10-14T20:58:32.217Z,32.45
2022-10-14T21:01:13.672Z,32.38
2022-10-14T21:03:42.464Z,34.45
2022-10-14T21:06:12.943Z,32.63
2022-10-14T21:08:40.352Z,32.20
2022-10-14T21:11:14.054Z,33.30
2022-10-14T21:13:53.505Z,32.10
2022-10-14T21:16:26.496Z,32.58
2022-10-14T21:18:59.436Z,34.00
2022-10-14T21:21:29.178Z,32.97
2022-10-14T21:23:56.839Z,33.67
2022-10-14T21:26:23.785Z,34.17
2022-10-14T21:28:51.747Z,33.90
2022-10-14T21:31:19.986Z,34.13
2022-10-14T21:33:47.972Z,33.67
2022-10-14T21:36:16.585Z,32.95
2022-10-14T21:38:43.856Z,33.88
2022-10-14T21:41:12.008Z,31.35
2022-10-14T21:43:39.863Z,33.97
2022-10-14T21:46:13.428Z,34.75
2022-10-14T21:48:42.209Z,33.92
2022-10-14T21:51:12.386Z,35.08
2022-10-14T21:53:41.567Z,34.28
2022-10-14T21:56:09.484Z,32.88
2022-10-14T21:58:37.369Z,34.60
2022-10-14T22:01:21.005Z,34.97
2022-10-14T22:03:56.789Z,34.80
2022-10-14T22:06:24.668Z,34.63
2022-10-14T22:08:55.046Z,33.30
2022-10-14T22:11:28.094Z,33.63
2022-10-14T22:13:56.952Z,34.47
2022-10-14T22:16:24.597Z,35.47
2022-10-14T22:18:53.658Z,35.00
2022-10-14T22:21:24.616Z,35.20
2022-10-14T22:23:52.256Z,34.05
2022-10-14T22:26:22.579Z,35.00
2022-10-14T22:28:50.381Z,34.60
2022-10-14T22:31:21.753Z,35.25
2022-10-14T22:33:49.465Z,35.38
2022-10-14T22:36:24.211Z,35.25
2022-10-14T22:38:56.271Z,35.58
2022-10-14T22:41:25.371Z,34.75
2022-10-14T22:43:55.069Z,36.00
2022-10-14T22:46:30.166Z,35.58
2022-10-14T22:49:00.902Z,35.40
2022-10-14T22:51:32.774Z,35.72
2022-10-14T22:54:00.708Z,35.25
2022-10-14T22:56:33.468Z,36.05
2022-10-14T22:59:07.098Z,36.67
2022-10-14T23:01:35.521Z,36.42
2022-10-14T23:04:03.969Z,36.33
2022-10-14T23:06:32.576Z,37.00
2022-10-14T23:09:00.605Z,36.05
2022-10-14T23:11:31.951Z,35.85
2022-10-14T23:14:04.575Z,37.63
2022-10-14T23:16:36.902Z,35.90
2022-10-14T23:19:04.801Z,36.38
2022-10-14T23:21:37.195Z,38.97
2022-10-14T23:24:12.571Z,39.13
2022-10-14T23:26:42.026Z,39.33
2022-10-14T23:29:14.240Z,40.42
2022-10-14T23:31:41.864Z,38.65
2022-10-14T23:34:14.211Z,41.90
2022-10-14T23:36:42.248Z,39.78
2022-10-14T23:39:10.612Z,41.38
2022-10-14T23:41:39.292Z,39.78
2022-10-14T23:44:06.320Z,40.20
2022-10-14T23:46:34.373Z,39.35
2022-10-14T23:49:21.182Z,39.95
2022-10-14T23:51:53.576Z,39.72
2022-10-14T23:54:20.628Z,39.15
2022-10-14T23:56:50.006Z,40.55
2022-10-14T23:59:19.846Z,39.42
